Latest Weather Observations for Carters Bore

IDQ60801

Issued at 10:32 am EST Tuesday 7 December 2021 (issued every 10 minutes, with the page automatically refreshed every 10 minutes)

About weather observations | Map of weather stations | Latest weather observations for QLD | Other Formats
Station Details ID: 037053 Name: CARTERS BORE Lat: -20.94 Lon: 139.30 Height: 396.0 m
Data from the previous 72 hours. | See also: Recent months at Carters Bore
Date/Time
EST
Temp
°C
App
Temp
°C
Dew
Point
°C
Rel
Hum
%
Delta-T
°C
Wind Press
QNH
hPa
Press
MSL
hPa
Rain since
9am
mm
Dir  Spd
km/h
Gust
km/h
Spd
kts
Gust
kts
07/10:30am 28.3 28.7 18.1 54 6.6 NNE 13 19 7 10 - - 0.0
07/10:00am 26.7 27.7 17.8 58 5.7 NNE 9 11 5 6 - - 0.0
07/09:30am 26.1 27.6 18.0 61 5.2 NNE 7 9 4 5 - - 0.0
07/09:00am 25.1 26.7 17.8 64 4.7 NE 6 11 3 6 - - 22.4
07/08:30am 24.5 25.4 17.5 65 4.4 E 9 13 5 7 - - 22.4
07/08:00am 24.0 25.4 17.7 68 4.0 E 7 13 4 7 - - 22.4
07/07:30am 23.1 24.8 18.0 73 3.2 NE 6 11 3 6 - - 22.4
07/07:00am 22.7 24.9 18.3 76 2.8 NE 4 6 2 3 - - 22.4
07/06:30am 22.4 25.0 18.4 78 2.5 N 2 6 1 3 - - 22.4
07/06:00am 22.3 23.4 17.9 76 2.8 N 9 15 5 8 - - 22.4
07/05:30am 22.3 21.9 17.2 73 3.2 N 15 20 8 11 - - 22.4
07/05:00am 23.2 23.2 16.3 65 4.3 ENE 11 17 6 9 - - 22.4
07/04:30am 23.2 22.8 16.3 65 4.3 ENE 13 26 7 14 - - 22.4
07/04:00am 22.9 22.3 16.7 68 3.9 E 15 26 8 14 - - 22.4
07/03:30am 22.7 21.7 16.7 69 3.7 ESE 17 28 9 15 - - 22.4
07/03:00am 23.0 21.9 17.2 70 3.6 SE 19 24 10 13 - - 22.4
07/02:30am 23.4 24.5 18.1 72 3.4 ESE 9 19 5 10 - - 22.4
07/02:00am 23.4 24.2 19.1 77 2.8 SE 13 24 7 13 - - 22.4
07/01:30am 22.9 22.7 19.7 82 2.1 SSE 20 32 11 17 - - 22.4
07/01:00am 23.1 26.2 20.2 84 1.9 ESE 4 6 2 3 - - 22.4
07/12:30am 22.8 25.3 19.8 83 2.0 SSE 6 9 3 5 - - 22.4
07/12:00am 22.8 25.9 19.6 82 2.1 NNW 2 4 1 2 - - 22.4
 
Date/Time
EST
Temp
°C
App
Temp
°C
Dew
Point
°C
Rel
Hum
%
Delta-T
°C
Wind Press
QNH
hPa
Press
MSL
hPa
Rain since
9am
mm
Dir  Spd
km/h
Gust
km/h
Spd
kts
Gust
kts
06/11:30pm 22.8 24.8 20.0 84 1.8 NNW 9 13 5 7 - - 22.4
06/11:00pm 23.0 23.6 19.4 80 2.3 W 15 22 8 12 - - 22.2
06/10:30pm 23.3 24.8 19.7 80 2.3 SW 11 19 6 10 - - 22.2
06/10:00pm 23.1 23.9 19.9 82 2.1 WSW 15 20 8 11 - - 22.0
06/09:30pm 24.0 22.3 18.2 70 3.7 SW 24 32 13 17 - - 21.4
06/09:00pm 22.9 24.7 18.2 75 3.0 NNW 6 13 3 7 - - 21.2
06/08:30pm 23.7 23.3 18.1 71 3.6 NNW 17 24 9 13 - - 21.2
06/08:00pm 25.0 23.9 17.2 62 4.9 NNE 19 26 10 14 - - 21.0
06/07:30pm 23.3 22.9 18.8 76 2.9 ENE 19 32 10 17 - - 20.6
06/07:09pm 23.6 22.1 19.5 78 2.7 SE 26 48 14 26 - - 20.2
06/07:00pm 22.3 20.7 19.3 83 1.9 ESE 26 44 14 24 - - 16.8
06/06:30pm 25.1 23.5 20.1 74 3.3 SE 28 41 15 22 - - 11.4
06/06:00pm 27.5 28.6 18.8 59 5.7 NNW 11 17 6 9 - - 7.0
06/05:43pm 29.0 29.1 18.4 52 6.9 NNW 15 32 8 17 - - 1.6
06/05:30pm 34.1 33.3 15.1 32 12.0 N 13 19 7 10 - - 0.0
06/05:00pm 34.5 33.7 13.9 29 12.8 N 11 17 6 9 - - 0.0
06/04:30pm 35.1 34.4 13.3 27 13.5 NW 9 20 5 11 - - 0.0
06/04:00pm 35.5 34.6 13.6 26 13.6 NNE 11 22 6 12 - - 0.0
06/03:30pm 34.3 33.6 13.2 28 13.0 NNW 9 17 5 9 - - 0.0
06/03:00pm 35.1 35.0 13.3 27 13.5 ENE 6 13 3 7 - - 0.0
06/02:30pm 34.7 34.1 14.6 30 12.6 NE 11 20 6 11 - - 0.0
06/02:00pm 34.1 33.3 14.1 30 12.4 NNE 11 19 6 10 - - 0.0
06/01:30pm 33.4 32.0 13.5 30 12.2 NNW 13 26 7 14 - - 0.0
06/01:00pm 33.5 33.4 15.0 32 11.6 NNE 9 20 5 11 - - 0.0
06/12:30pm 33.9 32.3 14.9 32 11.9 NNE 17 24 9 13 - - 0.0
06/12:00pm 31.9 29.9 15.0 36 10.6 NE 19 24 10 13 - - 0.0
06/11:30am 31.4 29.8 16.6 41 9.5 NE 20 30 11 16 - - 0.0
06/11:00am 29.8 28.1 16.2 43 8.6 NE 20 33 11 18 - - 0.0
06/10:30am 29.9 27.8 16.3 43 8.6 NE 22 33 12 18 - - 0.0
06/10:00am 28.1 25.8 16.7 50 7.2 NE 24 37 13 20 - - 0.0
06/09:30am 27.4 25.1 16.7 52 6.8 NE 24 37 13 20 - - 0.0
06/09:00am 26.8 23.9 17.0 55 6.2 NE 28 43 15 23 - - 0.0
06/08:30am 26.9 24.7 16.8 54 6.4 NE 24 37 13 20 - - 0.0
06/08:00am 26.0 24.7 16.8 57 5.8 NE 19 32 10 17 - - 0.0
06/07:30am 25.8 24.4 16.9 58 5.6 NE 20 28 11 15 - - 0.0
06/07:00am 25.3 24.0 16.7 59 5.4 NE 19 28 10 15 - - 0.0
06/06:30am 24.9 23.9 16.6 60 5.2 NE 17 30 9 16 - - 0.0
06/06:00am 24.7 24.1 16.7 61 5.0 NE 15 26 8 14 - - 0.0
06/05:30am 24.6 23.9 16.3 60 5.2 NE 15 20 8 11 - - 0.0
06/05:00am 24.3 23.8 16.8 63 4.7 NE 15 22 8 12 - - 0.0
06/04:30am 24.3 25.1 17.3 65 4.4 ENE 9 15 5 8 - - 0.0
06/04:00am 24.4 25.0 17.6 66 4.3 ENE 11 19 6 10 - - 0.0
06/03:30am 24.3 24.3 18.0 68 4.0 ENE 15 22 8 12 - - 0.0
06/03:00am 25.5 24.6 16.9 59 5.4 E 17 28 9 15 - - 0.0
06/02:30am 25.7 25.9 16.8 58 5.6 E 11 20 6 11 - - 0.0
06/02:00am 25.7 25.8 16.5 56 5.8 ESE 11 24 6 13 - - 0.0
06/01:30am 26.1 25.8 16.4 55 6.1 SE 13 24 7 13 - - 0.0
06/01:00am 26.6 25.0 15.9 51 6.7 SE 19 28 10 15 - - 0.0
06/12:30am 26.4 23.9 16.1 53 6.4 ESE 24 39 13 21 - - 0.0
06/12:00am 26.8 24.3 16.1 52 6.7 SE 24 41 13 22 - - 0.0
 
Date/Time
EST
Temp
°C
App
Temp
°C
Dew
Point
°C
Rel
Hum
%
Delta-T
°C
Wind Press
QNH
hPa
Press
MSL
hPa
Rain since
9am
mm
Dir  Spd
km/h
Gust
km/h
Spd
kts
Gust
kts
05/11:30pm 27.4 25.3 16.1 50 7.1 SE 22 33 12 18 - - 0.0
05/11:00pm 27.4 26.1 15.7 48 7.3 ESE 17 28 9 15 - - 0.0
05/10:30pm 27.8 24.8 15.8 48 7.5 SE 26 41 14 22 - - 0.0
05/10:03pm 27.9 23.6 15.5 46 7.7 SSE 32 50 17 27 - - 0.0
05/10:00pm 28.1 23.6 15.4 46 7.9 SSE 33 50 18 27 - - 0.0
05/09:41pm 30.3 26.1 13.6 36 10.2 SSE 28 50 15 27 - - 0.0
05/09:30pm 31.5 28.4 13.3 33 11.1 SE 22 33 12 18 - - 0.0
05/09:00pm 31.8 26.9 12.6 31 11.6 ESE 30 52 16 28 - - 0.0
05/08:46pm 33.1 27.5 11.6 27 12.8 E 32 50 17 27 - - 0.0
05/08:38pm 33.9 31.0 11.1 25 13.6 ENE 17 43 9 23 - - 0.0
05/08:30pm 34.6 33.3 9.1 21 14.8 ENE 6 7 3 4 - - 0.0
05/08:00pm 34.7 32.1 9.2 21 14.8 SSW 13 19 7 10 - - 0.0
05/07:30pm 33.7 28.9 11.5 26 13.3 S 28 48 15 26 - - 0.0
05/07:18pm 33.7 29.2 11.5 26 13.3 S 26 41 14 22 - - 0.0
05/07:00pm 34.9 33.8 10.0 22 14.6 WNW 6 9 3 5 - - 0.0
05/06:30pm 35.4 32.3 9.0 20 15.3 NNW 15 22 8 12 - - 0.0
05/06:00pm 35.9 30.9 9.4 20 15.5 N 26 43 14 23 - - 0.0
05/05:30pm 37.9 34.5 7.7 16 17.4 SE 15 24 8 13 - - 0.0
05/05:00pm 38.3 35.5 7.1 15 17.8 SSE 11 19 6 10 - - 0.0
05/04:30pm 38.0 36.1 6.9 15 17.7 ENE 6 9 3 5 - - 0.0
05/04:00pm 37.8 35.4 8.6 17 17.0 E 11 20 6 11 - - 0.0
05/03:30pm 36.9 32.9 11.7 22 15.3 ENE 24 43 13 23 - - 0.0
05/03:25pm 37.8 34.6 8.6 17 17.0 NE 15 43 8 23 - - 0.0
05/03:00pm 38.5 35.8 7.3 15 17.9 ENE 11 20 6 11 - - 0.0
05/02:30pm 38.3 34.4 7.1 15 17.8 NNE 17 26 9 14 - - 0.0
05/02:00pm 39.6 36.1 7.1 14 18.7 ENE 15 28 8 15 - - 0.0
05/01:30pm 38.8 35.6 8.5 16 17.7 NE 15 26 8 14 - - 0.0
05/01:00pm 38.3 34.3 8.1 16 17.5 NNE 19 30 10 16 - - 0.0
05/12:30pm 38.5 36.6 9.1 17 17.3 N 9 32 5 17 - - 0.0
05/12:00pm 37.9 34.0 8.6 17 17.1 NE 19 32 10 17 - - 0.0
05/11:30am 36.8 33.5 9.4 19 16.1 NE 17 32 9 17 - - 0.0
05/11:00am 37.5 34.7 10.0 19 16.3 NE 15 33 8 18 - - 0.0
05/10:30am 36.7 33.2 10.1 20 15.8 NE 19 35 10 19 - - 0.0
05/10:00am 36.0 32.7 10.9 22 15.0 NE 19 30 10 16 - - 0.0
05/09:30am 35.1 31.6 10.2 22 14.7 ENE 19 30 10 16 - - 0.0
05/09:00am 34.5 31.1 10.4 23 14.2 NE 19 28 10 15 - - 0.0
05/08:30am 34.2 32.9 11.4 25 13.6 NE 9 19 5 10 - - 0.0
05/08:00am 32.1 31.0 10.8 27 12.5 ENE 7 11 4 6 - - 0.0
05/07:30am 30.9 30.5 12.3 32 11.1 E 6 7 3 4 - - 0.0
05/07:00am 30.2 29.8 13.0 34 10.4 ENE 7 13 4 7 - - 0.0
05/06:30am 30.2 27.9 13.0 34 10.4 NE 17 28 9 15 - - 0.0
05/06:00am 31.5 29.1 10.2 27 12.4 ENE 13 20 7 11 - - 0.0
05/05:30am 30.7 29.8 10.6 29 11.7 ENE 6 7 3 4 - - 0.0
05/05:00am 31.0 30.0 10.4 28 12.0 E 6 7 3 4 - - 0.0
05/04:30am 31.7 30.5 10.4 27 12.4 E 7 11 4 6 - - 0.0
05/04:00am 31.9 30.8 10.6 27 12.5 E 7 11 4 6 - - 0.0
05/03:30am 31.5 30.5 10.2 27 12.4 E 6 7 3 4 - - 0.0
05/03:00am 31.9 31.0 10.6 27 12.5 SE 6 7 3 4 - - 0.0
05/02:30am 32.0 30.7 10.1 26 12.7 SSE 7 13 4 7 - - 0.0
05/02:00am 33.0 31.8 9.7 24 13.5 NNE 6 9 3 5 - - 0.0
05/01:30am 32.9 31.5 9.7 24 13.5 NNE 7 13 4 7 - - 0.0
05/01:00am 33.5 32.1 9.5 23 13.9 NNE 7 11 4 6 - - 0.0
05/12:30am 33.7 32.5 9.7 23 14.0 NE 6 13 3 7 - - 0.0
05/12:00am 34.1 32.3 9.4 22 14.3 ENE 9 15 5 8 - - 0.0
 
Date/Time
EST
Temp
°C
App
Temp
°C
Dew
Point
°C
Rel
Hum
%
Delta-T
°C
Wind Press
QNH
hPa
Press
MSL
hPa
Rain since
9am
mm
Dir  Spd
km/h
Gust
km/h
Spd
kts
Gust
kts
04/11:30pm 34.5 31.8 9.0 21 14.7 SE 13 22 7 12 - - 0.0
04/11:00pm 34.4 31.2 6.7 18 15.4 ESE 13 20 7 11 - - 0.0
04/10:30pm 33.5 31.4 6.7 19 14.9 E 7 17 4 9 - - 0.0
04/10:00pm 33.5 31.4 5.9 18 15.1 E 6 11 3 6 - - 0.0
04/09:30pm 34.8 32.0 5.3 16 16.1 ESE 9 15 5 8 - - 0.0
04/09:00pm 35.2 32.7 4.7 15 16.5 ESE 7 13 4 7 - - 0.0
04/08:30pm 35.8 33.4 5.1 15 16.8 ESE 7 13 4 7 - - 0.0
04/08:00pm 36.2 33.1 5.5 15 16.9 ESE 11 17 6 9 - - 0.0
04/07:30pm 36.9 33.3 5.0 14 17.5 ESE 13 22 7 12 - - 0.0
04/07:00pm 37.7 33.5 5.6 14 17.9 ESE 17 24 9 13 - - 0.0
04/06:30pm 38.3 33.6 5.0 13 18.4 ESE 19 30 10 16 - - 0.0
04/06:00pm 38.8 34.5 5.4 13 18.6 ENE 17 24 9 13 - - 0.0
04/05:30pm 39.1 35.7 5.7 13 18.7 ESE 13 28 7 15 - - 0.0
04/05:00pm 38.9 34.3 6.6 14 18.4 ENE 20 32 11 17 - - 0.0
04/04:30pm 38.9 34.1 5.5 13 18.7 E 20 35 11 19 - - 0.0
04/04:00pm 39.1 35.7 7.7 15 18.1 ESE 15 28 8 15 - - 0.0
04/03:30pm 38.8 34.2 6.5 14 18.3 E 20 37 11 20 - - 0.0
04/03:00pm 38.4 34.0 7.2 15 17.8 ESE 20 32 11 17 - - 0.0
04/02:30pm 39.2 34.9 6.8 14 18.5 ESE 19 35 10 19 - - 0.0
04/02:00pm 38.2 33.9 7.0 15 17.8 E 19 33 10 18 - - 0.0
04/01:30pm 37.7 33.3 6.6 15 17.6 E 19 32 10 17 - - 0.0
04/01:00pm 38.1 32.2 6.0 14 18.0 ESE 26 46 14 25 - - 0.0
04/12:30pm 38.7 33.5 7.4 15 18.0 ESE 24 48 13 26 - - 0.0
04/12:00pm 37.5 33.9 10.0 19 16.3 E 19 33 10 18 - - 0.0
04/11:30am 36.8 33.1 10.2 20 15.8 E 20 35 11 19 - - 0.0
04/11:00am 36.5 32.3 9.9 20 15.7 ESE 22 32 12 17 - - 0.0

Other formats

Comma delimited format used in spreadsheet applications
http://www.bom.gov.au/fwo/IDQ60801/IDQ60801.94347.axf

JavaScript Object Notation format (JSON) in row-major order
http://www.bom.gov.au/fwo/IDQ60801/IDQ60801.94347.json

Data quality

Most of these data are generated automatically and are frequently updated. Quality checks on data are not normally performed. It is possible for incorrect values to appear. Refer to information at About Latest Weather Observations and please check the disclaimer before using these data.